sensor_id;sensor_type;location;lat;lon;timestamp;temperature;humidity
18721;DHT22;9489;50.948;3.114;2022-10-22T00:00:51;15.20;99.90
18721;DHT22;9489;50.948;3.114;2022-10-22T00:03:17;15.20;99.90
18721;DHT22;9489;50.948;3.114;2022-10-22T00:05:43;15.20;99.90
18721;DHT22;9489;50.948;3.114;2022-10-22T00:08:08;15.10;99.90
18721;DHT22;9489;50.948;3.114;2022-10-22T00:10:36;15.20;99.90
18721;DHT22;9489;50.948;3.114;2022-10-22T00:13:02;15.20;99.90
18721;DHT22;9489;50.948;3.114;2022-10-22T00:15:28;15.10;99.90
18721;DHT22;9489;50.948;3.114;2022-10-22T00:17:54;15.10;99.90
18721;DHT22;9489;50.948;3.114;2022-10-22T00:20:19;15.10;99.90
18721;DHT22;9489;50.948;3.114;2022-10-22T00:22:45;15.10;99.90
18721;DHT22;9489;50.948;3.114;2022-10-22T00:25:11;15.10;99.90
18721;DHT22;9489;50.948;3.114;2022-10-22T00:27:36;15.10;99.90
18721;DHT22;9489;50.948;3.114;2022-10-22T00:30:02;15.00;99.90
18721;DHT22;9489;50.948;3.114;2022-10-22T00:32:28;15.00;99.90
18721;DHT22;9489;50.948;3.114;2022-10-22T00:34:53;14.90;99.90
18721;DHT22;9489;50.948;3.114;2022-10-22T00:37:19;14.90;99.90
18721;DHT22;9489;50.948;3.114;2022-10-22T00:39:44;14.90;99.90
18721;DHT22;9489;50.948;3.114;2022-10-22T00:42:17;14.90;99.90
18721;DHT22;9489;50.948;3.114;2022-10-22T00:45:05;14.90;99.90
18721;DHT22;9489;50.948;3.114;2022-10-22T00:47:35;14.80;99.90
18721;DHT22;9489;50.948;3.114;2022-10-22T00:52:58;14.80;99.90
18721;DHT22;9489;50.948;3.114;2022-10-22T00:55:25;14.80;99.90
18721;DHT22;9489;50.948;3.114;2022-10-22T00:57:54;14.80;99.90
18721;DHT22;9489;50.948;3.114;2022-10-22T01:00:20;14.70;99.90
18721;DHT22;9489;50.948;3.114;2022-10-22T01:02:47;14.70;99.90
18721;DHT22;9489;50.948;3.114;2022-10-22T01:05:13;14.70;99.90
18721;DHT22;9489;50.948;3.114;2022-10-22T01:07:46;14.70;99.90
18721;DHT22;9489;50.948;3.114;2022-10-22T01:16:20;14.60;99.90
18721;DHT22;9489;50.948;3.114;2022-10-22T01:21:44;14.60;99.90
18721;DHT22;9489;50.948;3.114;2022-10-22T01:24:37;14.60;99.90
18721;DHT22;9489;50.948;3.114;2022-10-22T01:29:46;14.60;99.90
18721;DHT22;9489;50.948;3.114;2022-10-22T01:32:19;14.60;99.90
18721;DHT22;9489;50.948;3.114;2022-10-22T01:34:51;14.60;99.90
18721;DHT22;9489;50.948;3.114;2022-10-22T01:37:18;14.50;99.90
18721;DHT22;9489;50.948;3.114;2022-10-22T01:39:46;14.50;99.90
18721;DHT22;9489;50.948;3.114;2022-10-22T01:42:13;14.50;99.90
18721;DHT22;9489;50.948;3.114;2022-10-22T01:44:39;14.40;99.90
18721;DHT22;9489;50.948;3.114;2022-10-22T01:47:40;14.40;99.90
18721;DHT22;9489;50.948;3.114;2022-10-22T02:04:28;14.40;99.90
18721;DHT22;9489;50.948;3.114;2022-10-22T02:07:00;14.40;99.90
18721;DHT22;9489;50.948;3.114;2022-10-22T02:09:27;14.40;99.90
18721;DHT22;9489;50.948;3.114;2022-10-22T02:11:56;14.40;99.90
18721;DHT22;9489;50.948;3.114;2022-10-22T02:14:24;14.40;99.90
18721;DHT22;9489;50.948;3.114;2022-10-22T02:16:52;14.40;99.90
18721;DHT22;9489;50.948;3.114;2022-10-22T02:19:30;14.40;99.90
18721;DHT22;9489;50.948;3.114;2022-10-22T02:22:00;14.50;99.90
18721;DHT22;9489;50.948;3.114;2022-10-22T02:24:26;14.60;99.90
18721;DHT22;9489;50.948;3.114;2022-10-22T02:27:13;14.60;99.90
18721;DHT22;9489;50.948;3.114;2022-10-22T02:29:48;14.60;99.90
18721;DHT22;9489;50.948;3.114;2022-10-22T02:32:20;14.70;99.90
18721;DHT22;9489;50.948;3.114;2022-10-22T02:34:48;14.70;99.90
18721;DHT22;9489;50.948;3.114;2022-10-22T02:37:16;14.70;99.90
18721;DHT22;9489;50.948;3.114;2022-10-22T02:39:42;14.70;99.90
18721;DHT22;9489;50.948;3.114;2022-10-22T02:42:09;14.70;99.90
18721;DHT22;9489;50.948;3.114;2022-10-22T02:44:37;14.70;99.90
18721;DHT22;9489;50.948;3.114;2022-10-22T02:47:03;14.80;99.90
18721;DHT22;9489;50.948;3.114;2022-10-22T02:49:28;14.90;99.90
18721;DHT22;9489;50.948;3.114;2022-10-22T02:51:54;14.90;99.90
18721;DHT22;9489;50.948;3.114;2022-10-22T02:54:20;14.90;99.90
18721;DHT22;9489;50.948;3.114;2022-10-22T02:56:45;14.90;99.90
18721;DHT22;9489;50.948;3.114;2022-10-22T02:59:11;14.90;99.90
18721;DHT22;9489;50.948;3.114;2022-10-22T03:01:36;15.00;99.90
18721;DHT22;9489;50.948;3.114;2022-10-22T03:04:02;15.00;99.90
18721;DHT22;9489;50.948;3.114;2022-10-22T03:06:28;15.00;99.90
18721;DHT22;9489;50.948;3.114;2022-10-22T03:08:53;15.10;99.90
18721;DHT22;9489;50.948;3.114;2022-10-22T03:11:19;15.10;99.90
18721;DHT22;9489;50.948;3.114;2022-10-22T03:13:45;15.10;99.90
18721;DHT22;9489;50.948;3.114;2022-10-22T03:16:10;15.20;99.90
18721;DHT22;9489;50.948;3.114;2022-10-22T03:18:36;15.20;99.90
18721;DHT22;9489;50.948;3.114;2022-10-22T03:21:26;15.20;99.90
18721;DHT22;9489;50.948;3.114;2022-10-22T03:23:52;15.20;99.90
18721;DHT22;9489;50.948;3.114;2022-10-22T03:26:18;15.20;99.90
18721;DHT22;9489;50.948;3.114;2022-10-22T03:28:44;15.20;99.90
18721;DHT22;9489;50.948;3.114;2022-10-22T03:31:12;15.20;99.90
18721;DHT22;9489;50.948;3.114;2022-10-22T03:33:37;15.20;99.90
18721;DHT22;9489;50.948;3.114;2022-10-22T03:36:04;15.20;99.90
18721;DHT22;9489;50.948;3.114;2022-10-22T03:38:31;15.20;99.90
18721;DHT22;9489;50.948;3.114;2022-10-22T03:40:58;15.20;99.90
18721;DHT22;9489;50.948;3.114;2022-10-22T03:43:24;15.30;99.90
18721;DHT22;9489;50.948;3.114;2022-10-22T03:45:50;15.20;99.90
18721;DHT22;9489;50.948;3.114;2022-10-22T03:48:15;15.30;99.90
18721;DHT22;9489;50.948;3.114;2022-10-22T03:50:41;15.30;99.90
18721;DHT22;9489;50.948;3.114;2022-10-22T03:53:06;15.30;99.90
18721;DHT22;9489;50.948;3.114;2022-10-22T03:55:34;15.20;99.90
18721;DHT22;9489;50.948;3.114;2022-10-22T03:58:00;15.20;99.90
18721;DHT22;9489;50.948;3.114;2022-10-22T04:00:26;15.10;99.90
18721;DHT22;9489;50.948;3.114;2022-10-22T04:02:52;15.10;99.90
18721;DHT22;9489;50.948;3.114;2022-10-22T04:05:17;15.10;99.90
18721;DHT22;9489;50.948;3.114;2022-10-22T04:07:43;15.10;99.90
18721;DHT22;9489;50.948;3.114;2022-10-22T04:10:09;15.00;99.90
18721;DHT22;9489;50.948;3.114;2022-10-22T04:12:34;15.00;99.90
18721;DHT22;9489;50.948;3.114;2022-10-22T04:15:00;15.00;99.90
18721;DHT22;9489;50.948;3.114;2022-10-22T04:17:25;15.10;99.90
18721;DHT22;9489;50.948;3.114;2022-10-22T04:19:57;15.10;99.90
18721;DHT22;9489;50.948;3.114;2022-10-22T04:22:22;15.00;99.90
18721;DHT22;9489;50.948;3.114;2022-10-22T04:24:48;15.10;99.90
18721;DHT22;9489;50.948;3.114;2022-10-22T04:27:13;15.10;99.90
18721;DHT22;9489;50.948;3.114;2022-10-22T04:29:39;15.10;99.90
18721;DHT22;9489;50.948;3.114;2022-10-22T04:32:04;15.10;99.90
18721;DHT22;9489;50.948;3.114;2022-10-22T04:34:30;15.10;99.90
18721;DHT22;9489;50.948;3.114;2022-10-22T04:36:56;15.10;99.90
18721;DHT22;9489;50.948;3.114;2022-10-22T04:39:22;15.00;99.90
18721;DHT22;9489;50.948;3.114;2022-10-22T04:41:48;15.00;99.90
18721;DHT22;9489;50.948;3.114;2022-10-22T04:44:13;15.00;99.90
18721;DHT22;9489;50.948;3.114;2022-10-22T04:46:39;15.00;99.90
18721;DHT22;9489;50.948;3.114;2022-10-22T04:49:04;15.00;99.90
18721;DHT22;9489;50.948;3.114;2022-10-22T04:51:31;15.00;99.90
18721;DHT22;9489;50.948;3.114;2022-10-22T04:53:57;14.90;99.90
18721;DHT22;9489;50.948;3.114;2022-10-22T04:56:26;14.90;99.90
18721;DHT22;9489;50.948;3.114;2022-10-22T04:58:54;14.90;99.90
18721;DHT22;9489;50.948;3.114;2022-10-22T05:01:23;14.90;99.90
18721;DHT22;9489;50.948;3.114;2022-10-22T05:03:51;14.90;99.90
18721;DHT22;9489;50.948;3.114;2022-10-22T05:06:17;15.00;99.90
18721;DHT22;9489;50.948;3.114;2022-10-22T05:08:45;14.90;99.90
18721;DHT22;9489;50.948;3.114;2022-10-22T05:11:18;15.00;99.90
18721;DHT22;9489;50.948;3.114;2022-10-22T05:13:45;15.00;99.90
18721;DHT22;9489;50.948;3.114;2022-10-22T05:16:10;15.10;99.90
18721;DHT22;9489;50.948;3.114;2022-10-22T05:18:37;15.10;99.90
18721;DHT22;9489;50.948;3.114;2022-10-22T05:21:07;15.00;99.90
18721;DHT22;9489;50.948;3.114;2022-10-22T05:23:32;15.00;99.90
18721;DHT22;9489;50.948;3.114;2022-10-22T05:26:02;15.10;99.90
18721;DHT22;9489;50.948;3.114;2022-10-22T05:28:27;15.00;99.90
18721;DHT22;9489;50.948;3.114;2022-10-22T05:30:57;15.00;99.90
18721;DHT22;9489;50.948;3.114;2022-10-22T05:33:24;15.00;99.90
18721;DHT22;9489;50.948;3.114;2022-10-22T05:35:50;15.00;99.90
18721;DHT22;9489;50.948;3.114;2022-10-22T05:38:16;15.00;99.90
18721;DHT22;9489;50.948;3.114;2022-10-22T05:40:41;15.00;99.90
18721;DHT22;9489;50.948;3.114;2022-10-22T05:43:07;15.10;99.90
18721;DHT22;9489;50.948;3.114;2022-10-22T05:45:37;15.00;99.90
18721;DHT22;9489;50.948;3.114;2022-10-22T05:48:03;15.00;99.90
18721;DHT22;9489;50.948;3.114;2022-10-22T05:50:29;15.10;99.90
18721;DHT22;9489;50.948;3.114;2022-10-22T05:52:54;15.10;99.90
18721;DHT22;9489;50.948;3.114;2022-10-22T05:55:20;15.10;99.90
18721;DHT22;9489;50.948;3.114;2022-10-22T05:57:45;15.10;99.90
18721;DHT22;9489;50.948;3.114;2022-10-22T06:00:14;15.10;99.90
18721;DHT22;9489;50.948;3.114;2022-10-22T06:02:41;15.10;99.90
18721;DHT22;9489;50.948;3.114;2022-10-22T06:05:07;15.10;99.90
18721;DHT22;9489;50.948;3.114;2022-10-22T06:07:33;15.10;99.90
18721;DHT22;9489;50.948;3.114;2022-10-22T06:09:59;15.10;99.90
18721;DHT22;9489;50.948;3.114;2022-10-22T06:12:25;15.20;99.90
18721;DHT22;9489;50.948;3.114;2022-10-22T06:14:51;15.10;99.90
18721;DHT22;9489;50.948;3.114;2022-10-22T06:17:17;15.10;99.90
18721;DHT22;9489;50.948;3.114;2022-10-22T06:19:44;15.10;99.90
18721;DHT22;9489;50.948;3.114;2022-10-22T06:22:10;15.10;99.90
18721;DHT22;9489;50.948;3.114;2022-10-22T06:24:35;15.10;99.90
18721;DHT22;9489;50.948;3.114;2022-10-22T06:27:01;15.00;99.90
18721;DHT22;9489;50.948;3.114;2022-10-22T06:29:27;15.10;99.90
18721;DHT22;9489;50.948;3.114;2022-10-22T06:31:53;15.10;99.90
18721;DHT22;9489;50.948;3.114;2022-10-22T06:34:18;15.10;99.90
18721;DHT22;9489;50.948;3.114;2022-10-22T06:36:44;15.10;99.90
18721;DHT22;9489;50.948;3.114;2022-10-22T06:39:12;15.10;99.90
18721;DHT22;9489;50.948;3.114;2022-10-22T06:41:38;15.10;99.90
18721;DHT22;9489;50.948;3.114;2022-10-22T06:44:04;15.10;99.90
18721;DHT22;9489;50.948;3.114;2022-10-22T06:46:29;15.20;99.90
18721;DHT22;9489;50.948;3.114;2022-10-22T06:49:01;15.10;99.90
18721;DHT22;9489;50.948;3.114;2022-10-22T06:51:28;15.20;99.90
18721;DHT22;9489;50.948;3.114;2022-10-22T06:53:57;15.30;99.90
18721;DHT22;9489;50.948;3.114;2022-10-22T06:56:26;15.30;99.90
18721;DHT22;9489;50.948;3.114;2022-10-22T06:58:53;15.30;99.90
18721;DHT22;9489;50.948;3.114;2022-10-22T07:01:21;15.40;99.90
18721;DHT22;9489;50.948;3.114;2022-10-22T07:03:49;15.40;99.90
18721;DHT22;9489;50.948;3.114;2022-10-22T07:06:16;15.40;99.90
18721;DHT22;9489;50.948;3.114;2022-10-22T07:08:42;15.40;99.90
18721;DHT22;9489;50.948;3.114;2022-10-22T07:11:15;15.40;99.90
18721;DHT22;9489;50.948;3.114;2022-10-22T07:13:43;15.30;99.90
18721;DHT22;9489;50.948;3.114;2022-10-22T07:16:09;15.40;99.90
18721;DHT22;9489;50.948;3.114;2022-10-22T07:18:35;15.40;99.90
18721;DHT22;9489;50.948;3.114;2022-10-22T07:21:01;15.50;99.90
18721;DHT22;9489;50.948;3.114;2022-10-22T07:23:27;15.60;99.90
18721;DHT22;9489;50.948;3.114;2022-10-22T07:25:53;15.70;99.90
18721;DHT22;9489;50.948;3.114;2022-10-22T07:28:19;15.80;99.90
18721;DHT22;9489;50.948;3.114;2022-10-22T07:30:45;16.00;99.90
18721;DHT22;9489;50.948;3.114;2022-10-22T07:33:11;16.30;99.90
18721;DHT22;9489;50.948;3.114;2022-10-22T07:35:37;16.40;99.90
18721;DHT22;9489;50.948;3.114;2022-10-22T07:38:04;16.40;99.90
18721;DHT22;9489;50.948;3.114;2022-10-22T07:40:30;16.50;99.90
18721;DHT22;9489;50.948;3.114;2022-10-22T07:42:56;16.40;99.90
18721;DHT22;9489;50.948;3.114;2022-10-22T07:45:22;16.30;99.90
18721;DHT22;9489;50.948;3.114;2022-10-22T07:47:48;16.30;99.90
18721;DHT22;9489;50.948;3.114;2022-10-22T07:50:14;16.30;99.90
18721;DHT22;9489;50.948;3.114;2022-10-22T07:52:39;16.40;99.90
18721;DHT22;9489;50.948;3.114;2022-10-22T07:55:05;16.40;99.90
18721;DHT22;9489;50.948;3.114;2022-10-22T07:57:31;16.40;99.90
18721;DHT22;9489;50.948;3.114;2022-10-22T07:59:57;16.30;99.90
18721;DHT22;9489;50.948;3.114;2022-10-22T08:02:23;16.20;99.90
18721;DHT22;9489;50.948;3.114;2022-10-22T08:04:49;16.20;99.90
18721;DHT22;9489;50.948;3.114;2022-10-22T08:07:14;16.20;99.90
18721;DHT22;9489;50.948;3.114;2022-10-22T08:09:40;16.10;99.90
18721;DHT22;9489;50.948;3.114;2022-10-22T08:12:06;16.10;99.90
18721;DHT22;9489;50.948;3.114;2022-10-22T08:14:32;16.00;99.90
18721;DHT22;9489;50.948;3.114;2022-10-22T08:16:57;16.00;99.90
18721;DHT22;9489;50.948;3.114;2022-10-22T08:19:23;16.10;99.90
18721;DHT22;9489;50.948;3.114;2022-10-22T08:21:49;16.10;99.90
18721;DHT22;9489;50.948;3.114;2022-10-22T08:24:14;16.20;99.90
18721;DHT22;9489;50.948;3.114;2022-10-22T08:26:40;16.20;99.90
18721;DHT22;9489;50.948;3.114;2022-10-22T08:29:06;16.20;99.90
18721;DHT22;9489;50.948;3.114;2022-10-22T08:31:33;16.20;99.90
18721;DHT22;9489;50.948;3.114;2022-10-22T08:33:59;16.30;99.90
18721;DHT22;9489;50.948;3.114;2022-10-22T08:36:24;16.30;99.90
18721;DHT22;9489;50.948;3.114;2022-10-22T08:38:50;16.50;99.90
18721;DHT22;9489;50.948;3.114;2022-10-22T08:41:18;16.90;99.90
18721;DHT22;9489;50.948;3.114;2022-10-22T08:49:45;17.40;99.90
18721;DHT22;9489;50.948;3.114;2022-10-22T08:52:16;17.60;99.90
18721;DHT22;9489;50.948;3.114;2022-10-22T08:54:55;18.20;99.90
18721;DHT22;9489;50.948;3.114;2022-10-22T09:00:04;20.00;99.90
18721;DHT22;9489;50.948;3.114;2022-10-22T09:02:49;20.40;99.90
18721;DHT22;9489;50.948;3.114;2022-10-22T09:05:32;20.80;99.90
18721;DHT22;9489;50.948;3.114;2022-10-22T09:07:59;21.10;99.90
18721;DHT22;9489;50.948;3.114;2022-10-22T09:10:28;21.40;99.90
18721;DHT22;9489;50.948;3.114;2022-10-22T09:12:56;21.50;99.90
18721;DHT22;9489;50.948;3.114;2022-10-22T09:15:21;21.70;99.90
18721;DHT22;9489;50.948;3.114;2022-10-22T09:17:54;22.30;99.90
18721;DHT22;9489;50.948;3.114;2022-10-22T09:20:32;22.30;99.90
18721;DHT22;9489;50.948;3.114;2022-10-22T09:25:41;22.60;99.90
18721;DHT22;9489;50.948;3.114;2022-10-22T09:28:09;22.50;99.90
18721;DHT22;9489;50.948;3.114;2022-10-22T09:30:36;21.90;99.90
18721;DHT22;9489;50.948;3.114;2022-10-22T09:33:13;21.80;99.90
18721;DHT22;9489;50.948;3.114;2022-10-22T09:35:46;22.30;99.90
18721;DHT22;9489;50.948;3.114;2022-10-22T09:38:15;22.30;99.90
18721;DHT22;9489;50.948;3.114;2022-10-22T09:40:44;22.40;99.90
18721;DHT22;9489;50.948;3.114;2022-10-22T09:43:13;22.10;99.90
18721;DHT22;9489;50.948;3.114;2022-10-22T09:45:42;21.80;99.90
18721;DHT22;9489;50.948;3.114;2022-10-22T09:48:13;22.10;99.90
18721;DHT22;9489;50.948;3.114;2022-10-22T09:50:46;22.60;99.90
18721;DHT22;9489;50.948;3.114;2022-10-22T09:53:27;22.80;99.90
18721;DHT22;9489;50.948;3.114;2022-10-22T09:55:57;22.90;99.90
18721;DHT22;9489;50.948;3.114;2022-10-22T09:58:24;22.90;99.90
18721;DHT22;9489;50.948;3.114;2022-10-22T10:00:58;23.10;99.90
18721;DHT22;9489;50.948;3.114;2022-10-22T10:03:27;23.20;99.90
18721;DHT22;9489;50.948;3.114;2022-10-22T10:05:56;22.50;99.90
18721;DHT22;9489;50.948;3.114;2022-10-22T10:08:22;22.40;99.90
18721;DHT22;9489;50.948;3.114;2022-10-22T10:13:45;22.10;99.90
18721;DHT22;9489;50.948;3.114;2022-10-22T10:19:16;21.80;99.90
18721;DHT22;9489;50.948;3.114;2022-10-22T10:22:12;22.00;99.90
18721;DHT22;9489;50.948;3.114;2022-10-22T10:27:55;22.80;99.90
18721;DHT22;9489;50.948;3.114;2022-10-22T10:30:24;22.60;99.90
18721;DHT22;9489;50.948;3.114;2022-10-22T10:38:25;22.30;99.90
18721;DHT22;9489;50.948;3.114;2022-10-22T10:41:12;22.00;99.90
18721;DHT22;9489;50.948;3.114;2022-10-22T10:44:15;21.50;99.90
18721;DHT22;9489;50.948;3.114;2022-10-22T10:49:25;21.10;99.90
18721;DHT22;9489;50.948;3.114;2022-10-22T10:52:12;21.50;99.90
18721;DHT22;9489;50.948;3.114;2022-10-22T10:55:01;22.20;99.90
18721;DHT22;9489;50.948;3.114;2022-10-22T11:01:06;23.30;99.90
18721;DHT22;9489;50.948;3.114;2022-10-22T11:06:21;24.50;99.90
18721;DHT22;9489;50.948;3.114;2022-10-22T11:11:47;24.30;99.90
18721;DHT22;9489;50.948;3.114;2022-10-22T11:14:18;24.00;99.90
18721;DHT22;9489;50.948;3.114;2022-10-22T11:16:58;24.90;99.90
18721;DHT22;9489;50.948;3.114;2022-10-22T11:19:31;25.60;99.90
18721;DHT22;9489;50.948;3.114;2022-10-22T11:22:22;24.80;99.90
18721;DHT22;9489;50.948;3.114;2022-10-22T11:25:33;23.20;99.90
18721;DHT22;9489;50.948;3.114;2022-10-22T11:28:10;22.20;99.90
18721;DHT22;9489;50.948;3.114;2022-10-22T11:30:39;21.50;99.90
18721;DHT22;9489;50.948;3.114;2022-10-22T11:33:13;21.50;99.90
18721;DHT22;9489;50.948;3.114;2022-10-22T11:35:43;22.30;99.90
18721;DHT22;9489;50.948;3.114;2022-10-22T11:38:14;22.40;99.90
18721;DHT22;9489;50.948;3.114;2022-10-22T11:40:56;22.30;99.90
18721;DHT22;9489;50.948;3.114;2022-10-22T11:43:29;22.10;99.90
18721;DHT22;9489;50.948;3.114;2022-10-22T11:49:03;21.50;99.90
18721;DHT22;9489;50.948;3.114;2022-10-22T11:51:35;21.30;99.90
18721;DHT22;9489;50.948;3.114;2022-10-22T11:54:47;21.60;99.90
18721;DHT22;9489;50.948;3.114;2022-10-22T11:56:51;22.60;99.90
18721;DHT22;9489;50.948;3.114;2022-10-22T12:02:43;24.30;99.90
18721;DHT22;9489;50.948;3.114;2022-10-22T12:08:00;24.20;99.90
18721;DHT22;9489;50.948;3.114;2022-10-22T12:10:33;24.90;99.90
18721;DHT22;9489;50.948;3.114;2022-10-22T12:13:10;26.00;99.90
18721;DHT22;9489;50.948;3.114;2022-10-22T12:15:50;27.00;99.90
18721;DHT22;9489;50.948;3.114;2022-10-22T12:18:16;27.30;99.90
18721;DHT22;9489;50.948;3.114;2022-10-22T12:20:42;27.90;99.90
18721;DHT22;9489;50.948;3.114;2022-10-22T12:23:10;28.00;99.90
18721;DHT22;9489;50.948;3.114;2022-10-22T12:25:36;27.50;99.90
18721;DHT22;9489;50.948;3.114;2022-10-22T12:28:02;27.40;99.90
18721;DHT22;9489;50.948;3.114;2022-10-22T12:30:31;27.30;99.90
18721;DHT22;9489;50.948;3.114;2022-10-22T12:33:01;27.00;99.90
18721;DHT22;9489;50.948;3.114;2022-10-22T12:35:41;26.30;99.90
18721;DHT22;9489;50.948;3.114;2022-10-22T12:38:23;26.20;99.90
18721;DHT22;9489;50.948;3.114;2022-10-22T12:40:50;26.90;99.90
18721;DHT22;9489;50.948;3.114;2022-10-22T12:43:23;27.40;99.90
18721;DHT22;9489;50.948;3.114;2022-10-22T12:45:49;28.10;99.90
18721;DHT22;9489;50.948;3.114;2022-10-22T12:48:32;28.50;99.90
18721;DHT22;9489;50.948;3.114;2022-10-22T12:51:02;28.40;99.90
18721;DHT22;9489;50.948;3.114;2022-10-22T12:53:34;28.50;99.90
18721;DHT22;9489;50.948;3.114;2022-10-22T12:56:06;28.10;99.90
18721;DHT22;9489;50.948;3.114;2022-10-22T12:58:44;27.50;99.90
18721;DHT22;9489;50.948;3.114;2022-10-22T13:01:12;27.50;99.90
18721;DHT22;9489;50.948;3.114;2022-10-22T13:03:47;27.70;99.90
18721;DHT22;9489;50.948;3.114;2022-10-22T13:09:35;27.40;99.90
18721;DHT22;9489;50.948;3.114;2022-10-22T13:11:37;27.70;99.90
18721;DHT22;9489;50.948;3.114;2022-10-22T13:14:04;27.70;99.90
18721;DHT22;9489;50.948;3.114;2022-10-22T13:16:30;27.30;99.90
18721;DHT22;9489;50.948;3.114;2022-10-22T13:18:56;25.90;99.90
18721;DHT22;9489;50.948;3.114;2022-10-22T13:23:59;24.00;99.90
18721;DHT22;9489;50.948;3.114;2022-10-22T13:26:36;23.50;99.90
18721;DHT22;9489;50.948;3.114;2022-10-22T13:29:08;24.00;99.90
18721;DHT22;9489;50.948;3.114;2022-10-22T13:31:35;24.80;99.90
18721;DHT22;9489;50.948;3.114;2022-10-22T13:34:05;24.70;99.90
18721;DHT22;9489;50.948;3.114;2022-10-22T13:36:34;24.80;99.90
18721;DHT22;9489;50.948;3.114;2022-10-22T13:39:01;24.70;99.90
18721;DHT22;9489;50.948;3.114;2022-10-22T13:41:29;24.80;99.90
18721;DHT22;9489;50.948;3.114;2022-10-22T13:43:57;24.50;99.90
18721;DHT22;9489;50.948;3.114;2022-10-22T13:46:23;24.50;99.90
18721;DHT22;9489;50.948;3.114;2022-10-22T13:48:50;24.00;99.90
18721;DHT22;9489;50.948;3.114;2022-10-22T13:51:23;23.50;99.90
18721;DHT22;9489;50.948;3.114;2022-10-22T13:53:51;23.70;99.90
18721;DHT22;9489;50.948;3.114;2022-10-22T13:56:19;23.70;99.90
18721;DHT22;9489;50.948;3.114;2022-10-22T13:58:46;23.30;99.90
18721;DHT22;9489;50.948;3.114;2022-10-22T14:03:40;22.90;99.90
18721;DHT22;9489;50.948;3.114;2022-10-22T14:06:12;22.90;99.90
18721;DHT22;9489;50.948;3.114;2022-10-22T14:08:38;23.20;99.90
18721;DHT22;9489;50.948;3.114;2022-10-22T14:11:04;23.50;99.90
18721;DHT22;9489;50.948;3.114;2022-10-22T14:13:30;23.70;99.90
18721;DHT22;9489;50.948;3.114;2022-10-22T14:15:55;23.70;99.90
18721;DHT22;9489;50.948;3.114;2022-10-22T14:18:26;23.60;99.90
18721;DHT22;9489;50.948;3.114;2022-10-22T14:20:58;23.40;99.90
18721;DHT22;9489;50.948;3.114;2022-10-22T14:23:26;23.00;99.90
18721;DHT22;9489;50.948;3.114;2022-10-22T14:25:53;22.80;99.90
18721;DHT22;9489;50.948;3.114;2022-10-22T14:28:18;22.60;99.90
18721;DHT22;9489;50.948;3.114;2022-10-22T14:30:45;22.40;99.90
18721;DHT22;9489;50.948;3.114;2022-10-22T14:35:44;22.10;99.90
18721;DHT22;9489;50.948;3.114;2022-10-22T14:38:10;22.00;99.90
18721;DHT22;9489;50.948;3.114;2022-10-22T14:40:36;22.00;99.90
18721;DHT22;9489;50.948;3.114;2022-10-22T14:43:03;22.20;99.90
18721;DHT22;9489;50.948;3.114;2022-10-22T14:45:29;22.10;99.90
18721;DHT22;9489;50.948;3.114;2022-10-22T14:47:55;22.00;99.90
18721;DHT22;9489;50.948;3.114;2022-10-22T14:50:22;21.90;99.90
18721;DHT22;9489;50.948;3.114;2022-10-22T14:52:49;21.80;99.90
18721;DHT22;9489;50.948;3.114;2022-10-22T14:55:16;21.90;99.90
18721;DHT22;9489;50.948;3.114;2022-10-22T14:57:42;22.00;99.90
18721;DHT22;9489;50.948;3.114;2022-10-22T15:00:11;22.30;99.90
18721;DHT22;9489;50.948;3.114;2022-10-22T15:02:37;22.80;99.90
18721;DHT22;9489;50.948;3.114;2022-10-22T15:05:03;23.00;99.90
18721;DHT22;9489;50.948;3.114;2022-10-22T15:07:29;23.10;99.90
18721;DHT22;9489;50.948;3.114;2022-10-22T15:09:56;23.00;99.90
18721;DHT22;9489;50.948;3.114;2022-10-22T15:12:21;23.10;99.90
18721;DHT22;9489;50.948;3.114;2022-10-22T15:14:47;23.10;99.90
18721;DHT22;9489;50.948;3.114;2022-10-22T15:17:13;23.20;99.90
18721;DHT22;9489;50.948;3.114;2022-10-22T15:19:39;23.40;99.90
18721;DHT22;9489;50.948;3.114;2022-10-22T15:22:04;23.20;99.90
18721;DHT22;9489;50.948;3.114;2022-10-22T15:24:31;23.10;99.90
18721;DHT22;9489;50.948;3.114;2022-10-22T15:26:57;22.80;99.90
18721;DHT22;9489;50.948;3.114;2022-10-22T15:29:23;22.20;99.90
18721;DHT22;9489;50.948;3.114;2022-10-22T15:31:51;21.80;99.90
18721;DHT22;9489;50.948;3.114;2022-10-22T15:34:22;21.50;99.90
18721;DHT22;9489;50.948;3.114;2022-10-22T15:36:49;21.20;99.90
18721;DHT22;9489;50.948;3.114;2022-10-22T15:39:15;20.80;99.90
18721;DHT22;9489;50.948;3.114;2022-10-22T15:41:41;20.50;99.90
18721;DHT22;9489;50.948;3.114;2022-10-22T15:44:07;20.30;99.90
18721;DHT22;9489;50.948;3.114;2022-10-22T15:46:35;20.20;99.90
18721;DHT22;9489;50.948;3.114;2022-10-22T15:49:01;20.10;99.90
18721;DHT22;9489;50.948;3.114;2022-10-22T15:51:26;19.90;99.90
18721;DHT22;9489;50.948;3.114;2022-10-22T15:53:56;19.80;99.90
18721;DHT22;9489;50.948;3.114;2022-10-22T15:56:24;19.70;99.90
18721;DHT22;9489;50.948;3.114;2022-10-22T15:58:55;19.50;99.90
18721;DHT22;9489;50.948;3.114;2022-10-22T16:01:22;19.50;99.90
18721;DHT22;9489;50.948;3.114;2022-10-22T16:03:50;19.50;99.90
18721;DHT22;9489;50.948;3.114;2022-10-22T16:08:56;19.40;99.90
18721;DHT22;9489;50.948;3.114;2022-10-22T16:11:21;19.30;99.90
18721;DHT22;9489;50.948;3.114;2022-10-22T16:13:47;19.20;99.90
18721;DHT22;9489;50.948;3.114;2022-10-22T16:16:16;19.00;99.90
18721;DHT22;9489;50.948;3.114;2022-10-22T16:18:42;19.00;99.90
18721;DHT22;9489;50.948;3.114;2022-10-22T16:21:11;19.00;99.90
18721;DHT22;9489;50.948;3.114;2022-10-22T16:23:38;19.00;99.90
18721;DHT22;9489;50.948;3.114;2022-10-22T16:26:03;19.00;99.90
18721;DHT22;9489;50.948;3.114;2022-10-22T16:28:29;18.90;99.90
18721;DHT22;9489;50.948;3.114;2022-10-22T16:30:54;18.80;99.90
18721;DHT22;9489;50.948;3.114;2022-10-22T16:33:20;18.70;99.90
18721;DHT22;9489;50.948;3.114;2022-10-22T16:35:47;18.60;99.90
18721;DHT22;9489;50.948;3.114;2022-10-22T16:38:13;18.50;99.90
18721;DHT22;9489;50.948;3.114;2022-10-22T16:40:38;18.40;99.90
18721;DHT22;9489;50.948;3.114;2022-10-22T16:43:04;18.30;99.90
18721;DHT22;9489;50.948;3.114;2022-10-22T16:45:30;18.30;99.90
18721;DHT22;9489;50.948;3.114;2022-10-22T16:47:55;18.20;99.90
18721;DHT22;9489;50.948;3.114;2022-10-22T16:50:21;18.10;99.90
18721;DHT22;9489;50.948;3.114;2022-10-22T16:52:47;18.10;99.90
18721;DHT22;9489;50.948;3.114;2022-10-22T16:55:12;18.00;99.90
18721;DHT22;9489;50.948;3.114;2022-10-22T16:57:38;17.90;99.90
18721;DHT22;9489;50.948;3.114;2022-10-22T17:00:04;17.90;99.90
18721;DHT22;9489;50.948;3.114;2022-10-22T17:02:30;17.80;99.90
18721;DHT22;9489;50.948;3.114;2022-10-22T17:04:56;17.80;99.90
18721;DHT22;9489;50.948;3.114;2022-10-22T17:07:21;17.80;99.90
18721;DHT22;9489;50.948;3.114;2022-10-22T17:09:47;17.70;99.90
18721;DHT22;9489;50.948;3.114;2022-10-22T17:12:12;17.70;99.90
18721;DHT22;9489;50.948;3.114;2022-10-22T17:14:38;17.70;99.90
18721;DHT22;9489;50.948;3.114;2022-10-22T17:17:03;17.50;99.90
18721;DHT22;9489;50.948;3.114;2022-10-22T17:19:29;17.50;99.90
18721;DHT22;9489;50.948;3.114;2022-10-22T17:21:55;17.50;99.90